Time;durP1;ratioP1;P1;durP2;ratioP2;P2;SDS_P1;SDS_P2;PMS_P1;PMS_P2;Temp;Humidity;BMP_temperature;BMP_pressure;BME280_temperature;BME280_humidity;BME280_pressure;Samples;Min_cycle;Max_cycle;Signal;HPM_P1;HPM_P2
2023/07/22 00:06:58;;;;;;;5.00;2.70;;;;;;;18.59;68.51;99673.63;30609277;28;96807;-69
2023/07/22 00:21:59;;;;;;;6.22;2.63;;;;;;;18.19;67.33;99664.38;30607155;28;97368;-69
2023/07/22 00:36:59;;;;;;;7.93;2.63;;;;;;;17.46;67.73;99682.44;30614100;28;96951;-68
2023/07/22 00:52:02;;;;;;;4.97;2.78;;;;;;;16.79;68.41;99695.84;30611764;28;98558;-68
2023/07/22 01:07:06;;;;;;;3.50;2.73;;;;;;;16.27;69.41;99693.44;30608570;28;97640;-70
2023/07/22 01:22:07;;;;;;;4.50;3.47;;;;;;;16.01;70.30;99700.66;30608838;28;97167;-69
2023/07/22 01:37:09;;;;;;;4.68;3.15;;;;;;;15.74;71.03;99700.81;30608033;28;96711;-68
2023/07/22 01:52:09;;;;;;;5.80;4.03;;;;;;;15.41;71.76;99734.03;30606694;28;96831;-68
2023/07/22 02:07:10;;;;;;;4.78;3.58;;;;;;;15.07;72.47;99728.75;30605054;28;115768;-68
2023/07/22 02:22:10;;;;;;;5.95;4.13;;;;;;;14.83;72.90;99734.81;30603005;28;96763;-68
2023/07/22 02:37:10;;;;;;;7.35;4.53;;;;;;;14.93;74.07;99745.13;30602080;28;108967;-69
2023/07/22 02:52:10;;;;;;;8.15;5.47;;;;;;;15.10;74.55;99745.50;30598744;28;97275;-68
2023/07/22 03:07:11;;;;;;;4.88;4.30;;;;;;;15.17;74.39;99763.22;30598902;28;112274;-69
2023/07/22 03:22:18;;;;;;;7.38;4.38;;;;;;;15.17;74.35;99782.00;30597719;28;99573;-70
2023/07/22 03:37:20;;;;;;;6.40;4.50;;;;;;;15.29;74.39;99795.56;30594817;28;97320;-70
2023/07/22 03:52:20;;;;;;;5.53;4.37;;;;;;;15.42;74.54;99791.19;30595176;28;97337;-68
2023/07/22 04:07:21;;;;;;;5.18;4.10;;;;;;;15.29;74.00;99811.69;30594659;28;97281;-68
2023/07/22 04:22:21;;;;;;;7.43;4.28;;;;;;;15.35;74.09;99813.53;30591612;28;96839;-70
2023/07/22 04:37:22;;;;;;;6.68;4.07;;;;;;;15.56;74.16;99820.47;30592832;28;96756;-70
2023/07/22 04:52:22;;;;;;;6.07;3.40;;;;;;;15.81;73.22;99843.13;30609122;28;111898;-69
2023/07/22 05:07:23;;;;;;;5.88;3.00;;;;;;;16.19;73.26;99851.22;30608365;28;114299;-70
2023/07/22 05:22:23;;;;;;;7.80;3.10;;;;;;;16.57;71.79;99863.78;30606560;28;97431;-69
2023/07/22 05:37:24;;;;;;;3.53;2.10;;;;;;;17.02;70.77;99876.31;30606639;28;96854;-68
2023/07/22 05:52:24;;;;;;;3.23;2.10;;;;;;;17.39;68.99;99886.31;30603847;28;96679;-70
2023/07/22 06:07:25;;;;;;;3.45;2.50;;;;;;;17.93;67.40;99884.72;30602792;28;97399;-71
2023/07/22 06:22:25;;;;;;;4.72;2.40;;;;;;;18.50;64.76;99902.41;30599195;28;96585;-70
2023/07/22 06:37:26;;;;;;;6.82;2.50;;;;;;;18.86;63.14;99908.75;30615945;28;109286;-69
2023/07/22 06:52:26;;;;;;;4.55;2.60;;;;;;;20.00;60.28;99916.72;30627056;28;112351;-70
2023/07/22 07:07:26;;;;;;;4.38;2.50;;;;;;;20.60;57.37;99929.78;30592661;28;97990;-71
2023/07/22 07:22:26;;;;;;;4.63;2.60;;;;;;;20.94;54.80;99939.84;30591651;28;103953;-72
2023/07/22 07:37:27;;;;;;;2.90;2.40;;;;;;;20.67;54.39;99953.16;30594446;28;109861;-72
2023/07/22 07:52:27;;;;;;;2.73;2.20;;;;;;;21.41;52.40;99966.63;30593100;28;106629;-70
2023/07/22 08:07:28;;;;;;;3.83;2.17;;;;;;;21.97;49.69;99972.03;30592538;28;96722;-68
2023/07/22 08:22:28;;;;;;;3.47;2.00;;;;;;;23.12;47.02;99977.66;30599729;28;97938;-70
2023/07/22 08:37:28;;;;;;;;;;;;;;;23.75;43.66;99993.34;30602883;28;112560;-69
2023/07/22 08:52:29;;;;;;;2.57;1.60;;;;;;;24.25;42.75;100000.16;30634700;28;98820;-69
2023/07/22 09:07:30;;;;;;;2.23;1.47;;;;;;;25.72;39.41;99999.00;30663471;28;98681;-71
2023/07/22 09:22:32;;;;;;;3.00;1.50;;;;;;;26.28;35.28;99998.00;30666628;28;97261;-67
2023/07/22 09:37:38;;;;;;;3.77;1.60;;;;;;;26.13;35.39;99998.91;30668241;28;96813;-67
2023/07/22 09:52:47;;;;;;;3.97;1.70;;;;;;;26.47;34.60;100008.31;30667413;28;97183;-68
2023/07/22 10:07:55;;;;;;;4.17;1.70;;;;;;;27.07;34.16;100007.44;30602933;28;96856;-67
2023/07/22 10:22:56;;;;;;;2.33;1.60;;;;;;;27.92;31.75;99999.81;30601007;28;97070;-66
2023/07/22 10:38:08;;;;;;;3.58;1.65;;;;;;;27.45;31.55;100011.25;30600246;28;97142;-67
2023/07/22 10:53:10;;;;;;;3.40;1.80;;;;;;;26.33;32.36;100019.84;30595759;28;97227;-65
2023/07/22 11:08:10;;;;;;;4.87;2.67;;;;;;;25.78;30.47;100027.06;30567933;28;98249;-65
2023/07/22 11:23:11;;;;;;;4.05;2.22;;;;;;;26.57;31.48;100030.09;30586568;28;97510;-65
2023/07/22 11:38:14;;;;;;;3.35;1.90;;;;;;;27.36;30.70;100011.03;30582029;28;98380;-69
2023/07/22 11:53:15;;;;;;;3.03;1.60;;;;;;;27.31;30.33;100008.31;30616192;28;104364;-72
2023/07/22 12:08:15;;;;;;;3.30;1.50;;;;;;;27.94;28.49;100011.28;30622563;28;98603;-66
2023/07/22 12:23:15;;;;;;;2.53;1.45;;;;;;;26.40;30.01;100007.81;30616380;28;97663;-66
2023/07/22 12:38:16;;;;;;;3.30;1.70;;;;;;;27.21;28.43;99994.72;30618041;28;97332;-67
2023/07/22 12:53:16;;;;;;;2.60;1.48;;;;;;;27.34;26.38;99988.59;30629597;28;96690;-66
2023/07/22 13:08:17;;;;;;;2.90;1.52;;;;;;;27.53;26.97;99974.25;30613717;28;98535;-67
2023/07/22 13:23:17;;;;;;;3.90;1.30;;;;;;;25.96;27.55;99982.03;30606519;28;112371;-65
2023/07/22 13:38:17;;;;;;;3.80;1.50;;;;;;;26.13;27.30;99976.25;30638550;28;109302;-68
2023/07/22 13:53:18;;;;;;;4.22;1.50;;;;;;;26.74;27.02;99969.66;30659392;28;103901;-66
2023/07/22 14:08:18;;;;;;;2.67;1.52;;;;;;;26.23;27.38;99973.50;30609064;28;96761;-67
2023/07/22 14:23:18;;;;;;;2.30;1.42;;;;;;;26.26;27.81;99964.72;30592067;28;109988;-66
2023/07/22 14:38:18;;;;;;;3.08;1.50;;;;;;;26.24;27.58;99955.19;30594069;28;102624;-70
2023/07/22 14:53:19;;;;;;;2.58;1.73;;;;;;;25.93;28.21;99949.81;30607523;28;97081;-63
2023/07/22 15:08:19;;;;;;;3.92;2.28;;;;;;;25.64;28.14;99942.28;30590512;28;103273;-68
2023/07/22 15:23:19;;;;;;;5.07;1.75;;;;;;;25.50;28.39;99942.84;30587118;28;97266;-68
2023/07/22 15:38:20;;;;;;;3.95;1.63;;;;;;;24.96;28.53;99938.78;30585383;28;97309;-65
2023/07/22 15:53:21;;;;;;;5.20;1.88;;;;;;;24.65;29.04;99943.41;30636323;28;112765;-65
2023/07/22 16:08:21;;;;;;;4.63;1.98;;;;;;;24.33;29.19;99939.75;30619228;28;97442;-64
2023/07/22 16:23:21;;;;;;;3.90;1.70;;;;;;;24.11;29.89;99939.13;30597333;28;97258;-65
2023/07/22 16:38:22;;;;;;;3.03;1.42;;;;;;;23.76;30.14;99944.13;30599771;28;97271;-65
2023/07/22 16:53:22;;;;;;;3.40;1.95;;;;;;;23.48;30.33;99926.28;30610443;28;101949;-67
2023/07/22 17:08:22;;;;;;;4.05;1.83;;;;;;;23.11;31.00;99936.09;30639670;28;96846;-66
2023/07/22 17:23:23;;;;;;;2.67;1.45;;;;;;;22.72;31.60;99930.84;30635497;28;97875;-66
2023/07/22 17:38:24;;;;;;;3.88;1.98;;;;;;;22.32;32.08;99940.16;30599553;28;98585;-64
2023/07/22 17:53:24;;;;;;;2.90;1.70;;;;;;;21.90;33.40;99957.84;30597434;28;97515;-64
2023/07/22 18:08:25;;;;;;;10.40;3.40;;;;;;;21.45;34.09;99948.78;30596548;28;110048;-63
2023/07/22 18:23:25;;;;;;;4.87;2.13;;;;;;;21.03;34.89;99954.63;30594663;28;97312;-64
2023/07/22 18:38:27;;;;;;;6.07;2.30;;;;;;;20.45;36.04;99965.50;30583893;28;113538;-64
2023/07/22 18:53:27;;;;;;;6.73;2.47;;;;;;;19.90;37.28;99964.13;30593154;28;97311;-64
2023/07/22 19:08:27;;;;;;;6.47;2.37;;;;;;;19.47;38.77;99977.97;30591205;28;97428;-64
2023/07/22 19:23:29;;;;;;;6.60;3.50;;;;;;;19.07;40.68;99992.94;30597858;28;96958;-64
2023/07/22 19:38:29;;;;;;;7.90;3.40;;;;;;;18.78;42.34;99998.09;30597282;28;96670;-64
2023/07/22 19:53:30;;;;;;;11.05;6.07;;;;;;;18.36;42.54;100011.53;30596574;28;96779;-64
2023/07/22 20:08:30;;;;;;;9.60;5.10;;;;;;;18.04;44.75;100022.44;30596449;28;97779;-65
2023/07/22 20:23:31;;;;;;;18.45;10.27;;;;;;;17.72;45.99;100027.91;30614659;28;97284;-64
2023/07/22 20:38:32;;;;;;;17.05;9.45;;;;;;;17.32;47.10;100022.84;30613473;28;96873;-64
2023/07/22 20:53:32;;;;;;;15.33;9.10;;;;;;;16.84;47.99;100024.16;30612274;28;97199;-65
2023/07/22 21:08:33;;;;;;;10.90;5.13;;;;;;;16.39;49.01;100043.84;30610521;28;97531;-65
2023/07/22 21:23:34;;;;;;;8.57;4.43;;;;;;;16.15;49.53;100032.72;30608014;28;96807;-64
2023/07/22 21:38:35;;;;;;;8.88;4.47;;;;;;;15.93;50.01;100045.59;30609415;28;98935;-64
2023/07/22 21:53:36;;;;;;;7.77;5.17;;;;;;;15.69;50.79;100041.66;30607558;28;97230;-64
2023/07/22 22:08:36;;;;;;;10.85;4.53;;;;;;;15.51;52.29;100043.13;30605918;28;109893;-64
2023/07/22 22:23:36;;;;;;;7.65;4.43;;;;;;;15.32;53.33;100052.81;30603843;28;101342;-65
2023/07/22 22:38:37;;;;;;;10.73;6.70;;;;;;;15.17;54.53;100053.00;30602272;28;96764;-65
2023/07/22 22:53:37;;;;;;;10.38;6.97;;;;;;;14.93;55.40;100051.69;30624525;28;96880;-63
2023/07/22 23:08:37;;;;;;;8.18;5.25;;;;;;;14.86;56.21;100040.94;30720706;28;114789;-64
2023/07/22 23:23:38;;;;;;;7.38;5.22;;;;;;;14.47;57.27;100037.06;30719936;28;97114;-64
2023/07/22 23:38:38;;;;;;;9.48;5.40;;;;;;;14.14;58.99;100032.34;30646814;28;96741;-65
2023/07/22 23:53:40;;;;;;;9.63;6.30;;;;;;;13.93;60.74;100032.44;30595460;28;97522;-64
